createdAt,value
2022-09-06T00:00:56.314Z,18.20
2022-09-06T00:03:23.509Z,18.20
2022-09-06T00:05:51.094Z,18.10
2022-09-06T00:08:18.086Z,18.10
2022-09-06T00:10:45.005Z,18.10
2022-09-06T00:13:12.093Z,18.10
2022-09-06T00:15:39.109Z,18.00
2022-09-06T00:18:06.715Z,18.00
2022-09-06T00:20:34.736Z,18.00
2022-09-06T00:23:03.338Z,17.90
2022-09-06T00:25:30.427Z,17.90
2022-09-06T00:27:58.072Z,17.80
2022-09-06T00:30:25.357Z,17.80
2022-09-06T00:32:53.171Z,17.80
2022-09-06T00:35:20.364Z,17.80
2022-09-06T00:37:47.472Z,17.80
2022-09-06T00:40:14.570Z,17.70
2022-09-06T00:42:41.594Z,17.70
2022-09-06T00:45:09.142Z,17.60
2022-09-06T00:47:36.517Z,17.60
2022-09-06T00:50:03.801Z,17.60
2022-09-06T00:52:30.708Z,17.60
2022-09-06T00:54:57.614Z,17.50
2022-09-06T00:57:27.386Z,17.50
2022-09-06T00:59:54.913Z,17.40
2022-09-06T01:02:22.006Z,17.40
2022-09-06T01:04:49.215Z,17.40
2022-09-06T01:07:34.789Z,17.40
2022-09-06T01:10:27.800Z,17.40
2022-09-06T01:13:08.774Z,17.40
2022-09-06T01:16:09.127Z,17.40
2022-09-06T01:18:48.203Z,17.30
2022-09-06T01:21:36.247Z,17.30
2022-09-06T01:24:32.607Z,17.30
2022-09-06T01:27:06.435Z,17.20
2022-09-06T01:29:43.625Z,17.20
2022-09-06T01:32:39.863Z,17.20
2022-09-06T01:35:30.245Z,17.20
2022-09-06T01:37:57.193Z,17.10
2022-09-06T01:40:24.100Z,17.10
2022-09-06T01:42:51.200Z,17.10
2022-09-06T01:45:20.244Z,17.10
2022-09-06T01:48:19.487Z,17.10
2022-09-06T01:51:08.250Z,17.10
2022-09-06T01:53:53.578Z,17.00
2022-09-06T01:56:37.982Z,17.00
2022-09-06T01:59:11.076Z,17.00
2022-09-06T02:01:43.631Z,16.90
2022-09-06T02:04:39.335Z,16.90
2022-09-06T02:07:31.409Z,16.90
2022-09-06T02:10:09.506Z,16.90
2022-09-06T02:12:37.666Z,16.90
2022-09-06T02:15:11.936Z,16.90
2022-09-06T02:17:41.154Z,16.90
2022-09-06T02:20:16.916Z,16.80
2022-09-06T02:22:45.347Z,16.90
2022-09-06T02:25:13.879Z,16.80
2022-09-06T02:27:40.814Z,16.80
2022-09-06T02:30:08.202Z,16.80
2022-09-06T02:32:38.218Z,16.80
2022-09-06T02:35:09.871Z,16.80
2022-09-06T02:37:36.882Z,16.80
2022-09-06T02:40:04.319Z,16.80
2022-09-06T02:42:31.228Z,16.80
2022-09-06T02:44:58.159Z,16.80
2022-09-06T02:47:25.155Z,16.80
2022-09-06T02:49:52.081Z,16.70
2022-09-06T02:52:19.070Z,16.70
2022-09-06T02:54:46.143Z,16.70
2022-09-06T02:57:13.032Z,16.70
2022-09-06T02:59:39.932Z,16.70
2022-09-06T03:02:07.431Z,16.60
2022-09-06T03:04:34.363Z,16.60
2022-09-06T03:07:01.261Z,16.60
2022-09-06T03:09:28.224Z,16.60
2022-09-06T03:11:55.225Z,16.60
2022-09-06T03:14:22.126Z,16.50
2022-09-06T03:16:49.111Z,16.50
2022-09-06T03:19:16.150Z,16.50
2022-09-06T03:21:43.048Z,16.50
2022-09-06T03:24:10.026Z,16.50
2022-09-06T03:26:37.035Z,16.50
2022-09-06T03:29:03.994Z,16.50
2022-09-06T03:31:30.875Z,16.50
2022-09-06T03:33:57.823Z,16.50
2022-09-06T03:36:24.733Z,16.50
2022-09-06T03:38:53.921Z,16.40
2022-09-06T03:41:20.818Z,16.40
2022-09-06T03:43:47.732Z,16.40
2022-09-06T03:46:14.762Z,16.30
2022-09-06T03:48:42.002Z,16.30
2022-09-06T03:51:08.894Z,16.30
2022-09-06T03:53:35.791Z,16.30
2022-09-06T03:56:02.966Z,16.30
2022-09-06T03:58:30.784Z,16.20
2022-09-06T04:01:05.047Z,16.20
2022-09-06T04:03:32.432Z,16.30
2022-09-06T04:05:59.522Z,16.30
2022-09-06T04:08:26.648Z,16.30
2022-09-06T04:10:54.932Z,16.30
2022-09-06T04:13:23.192Z,16.30
2022-09-06T04:15:50.359Z,16.20
2022-09-06T04:18:17.389Z,16.20
2022-09-06T04:20:45.464Z,16.20
2022-09-06T04:23:12.366Z,16.20
2022-09-06T04:25:39.276Z,16.20
2022-09-06T04:28:06.170Z,16.20
2022-09-06T04:30:33.066Z,16.20
2022-09-06T04:32:59.970Z,16.20
2022-09-06T04:35:26.871Z,16.20
2022-09-06T04:37:53.898Z,16.10
2022-09-06T04:40:20.834Z,16.20
2022-09-06T04:42:47.746Z,16.10
2022-09-06T04:45:14.663Z,16.20
2022-09-06T04:47:41.671Z,16.20
2022-09-06T04:50:08.922Z,16.20
2022-09-06T04:52:35.880Z,16.20
2022-09-06T04:55:02.762Z,16.30
2022-09-06T04:57:29.679Z,16.30
2022-09-06T04:59:56.582Z,16.30
2022-09-06T05:02:23.574Z,16.30
2022-09-06T05:04:50.554Z,16.20
2022-09-06T05:07:17.492Z,16.20
2022-09-06T05:09:44.426Z,16.20
2022-09-06T05:12:11.380Z,16.20
2022-09-06T05:14:38.262Z,16.20
2022-09-06T05:17:05.200Z,16.20
2022-09-06T05:19:32.111Z,16.10
2022-09-06T05:21:59.097Z,16.10
2022-09-06T05:24:25.984Z,16.10
2022-09-06T05:26:52.907Z,16.10
2022-09-06T05:29:19.913Z,16.10
2022-09-06T05:31:46.913Z,16.10
2022-09-06T05:34:15.131Z,16.10
2022-09-06T05:36:42.270Z,16.10
2022-09-06T05:39:09.216Z,16.10
2022-09-06T05:41:36.133Z,16.10
2022-09-06T05:44:03.881Z,16.10
2022-09-06T05:46:30.978Z,16.10
2022-09-06T05:49:01.338Z,16.10
2022-09-06T05:51:28.454Z,16.10
2022-09-06T05:53:55.360Z,16.10
2022-09-06T05:56:22.707Z,16.20
2022-09-06T05:58:49.614Z,16.20
2022-09-06T06:01:25.159Z,16.20
2022-09-06T06:04:00.450Z,16.30
2022-09-06T06:06:28.952Z,16.30
2022-09-06T06:08:56.466Z,16.40
2022-09-06T06:11:23.658Z,16.50
2022-09-06T06:13:50.891Z,16.60
2022-09-06T06:16:18.507Z,16.70
2022-09-06T06:18:49.936Z,16.90
2022-09-06T06:21:23.803Z,17.00
2022-09-06T06:23:52.361Z,17.10
2022-09-06T06:26:19.679Z,17.20
2022-09-06T06:28:46.727Z,17.40
2022-09-06T06:31:14.391Z,17.50
2022-09-06T06:33:41.490Z,17.60
2022-09-06T06:36:18.870Z,17.70
2022-09-06T06:38:46.082Z,17.80
2022-09-06T06:41:14.620Z,17.90
2022-09-06T06:43:41.770Z,18.10
2022-09-06T06:46:09.527Z,18.20
2022-09-06T06:48:37.165Z,18.20
2022-09-06T06:51:04.233Z,18.20
2022-09-06T06:53:31.201Z,18.20
2022-09-06T06:55:58.400Z,18.20
2022-09-06T06:58:25.513Z,18.30
2022-09-06T07:00:52.490Z,18.40
2022-09-06T07:03:19.493Z,18.40
2022-09-06T07:08:34.620Z,18.50
2022-09-06T07:11:01.603Z,18.60
2022-09-06T07:13:28.613Z,18.70
2022-09-06T07:16:23.890Z,18.70
2022-09-06T07:18:52.636Z,18.70
2022-09-06T07:29:38.918Z,19.00
2022-09-06T07:32:13.007Z,19.30
2022-09-06T07:34:40.089Z,19.30
2022-09-06T07:37:07.010Z,19.30
2022-09-06T07:39:34.011Z,19.30
2022-09-06T07:42:01.626Z,19.30
2022-09-06T07:44:29.429Z,19.30
2022-09-06T07:55:17.248Z,19.50
2022-09-06T07:57:44.149Z,19.50
2022-09-06T08:00:12.151Z,19.40
2022-09-06T08:02:40.930Z,19.40
2022-09-06T08:10:42.390Z,19.60
2022-09-06T08:13:09.264Z,19.80
2022-09-06T08:15:36.165Z,20.40
2022-09-06T08:18:03.142Z,21.00
2022-09-06T08:20:30.088Z,21.00
2022-09-06T08:22:56.982Z,21.00
2022-09-06T08:25:23.985Z,20.90
2022-09-06T08:27:50.874Z,20.80
2022-09-06T08:30:17.897Z,20.70
2022-09-06T08:32:44.817Z,20.60
2022-09-06T08:35:11.818Z,20.60
2022-09-06T08:37:38.868Z,20.40
2022-09-06T08:40:06.178Z,20.40
2022-09-06T08:42:33.220Z,20.20
2022-09-06T08:45:02.324Z,20.20
2022-09-06T08:47:29.351Z,20.20
2022-09-06T08:50:16.619Z,20.20
2022-09-06T08:56:10.044Z,20.40
2022-09-06T08:58:55.092Z,20.40
2022-09-06T09:01:25.452Z,20.40
2022-09-06T09:03:53.242Z,20.40
2022-09-06T09:06:20.159Z,20.50
2022-09-06T09:09:04.405Z,20.50
2022-09-06T09:11:33.581Z,20.60
2022-09-06T09:14:06.639Z,20.50
2022-09-06T09:16:33.771Z,20.50
2022-09-06T09:19:04.896Z,20.50
2022-09-06T09:21:41.566Z,20.50
2022-09-06T09:24:10.204Z,20.50
2022-09-06T09:26:58.478Z,20.60
2022-09-06T09:29:28.700Z,20.50
2022-09-06T09:31:56.195Z,20.60
2022-09-06T09:34:33.406Z,20.50
2022-09-06T09:40:25.438Z,20.70
2022-09-06T09:42:53.263Z,20.80
2022-09-06T09:45:24.445Z,20.90
2022-09-06T09:47:51.923Z,21.00
2022-09-06T09:50:29.827Z,21.00
2022-09-06T09:52:56.871Z,21.10
2022-09-06T09:55:26.938Z,21.20
2022-09-06T09:57:54.377Z,21.30
2022-09-06T10:00:40.019Z,21.40
2022-09-06T10:03:14.096Z,21.40
2022-09-06T10:05:41.414Z,21.50
2022-09-06T10:08:12.391Z,21.50
2022-09-06T10:10:46.849Z,21.50
2022-09-06T10:13:23.947Z,21.50
2022-09-06T10:15:51.980Z,21.50
2022-09-06T10:18:40.165Z,21.40
2022-09-06T10:21:11.135Z,21.50
2022-09-06T10:26:43.954Z,21.50
2022-09-06T10:29:11.864Z,21.50
2022-09-06T10:31:45.633Z,21.60
2022-09-06T10:34:31.433Z,21.70
2022-09-06T10:37:17.117Z,21.70
2022-09-06T10:39:59.160Z,21.60
2022-09-06T10:42:54.599Z,21.70
2022-09-06T10:45:21.929Z,21.70
2022-09-06T10:48:04.827Z,21.90
2022-09-06T10:50:54.541Z,22.00
2022-09-06T10:53:27.507Z,22.10
2022-09-06T10:56:09.562Z,22.20
2022-09-06T11:01:57.922Z,22.30
2022-09-06T11:07:28.682Z,22.20
2022-09-06T11:10:23.986Z,22.10
2022-09-06T11:13:10.896Z,22.10
2022-09-06T11:16:01.007Z,22.10
2022-09-06T11:18:29.993Z,22.00
2022-09-06T11:21:03.384Z,22.10
2022-09-06T11:23:41.266Z,22.10
2022-09-06T11:26:15.459Z,22.20
2022-09-06T11:28:46.562Z,22.30
2022-09-06T11:34:12.066Z,22.40
2022-09-06T11:36:48.963Z,22.40
2022-09-06T11:42:44.449Z,22.60
2022-09-06T11:45:11.350Z,22.60
2022-09-06T11:47:48.683Z,22.70
2022-09-06T11:50:21.608Z,22.70
2022-09-06T11:53:03.329Z,22.70
2022-09-06T11:55:50.278Z,22.80
2022-09-06T11:58:17.152Z,22.90
2022-09-06T12:00:45.168Z,22.90
2022-09-06T12:04:07.453Z,23.00
2022-09-06T12:06:40.984Z,23.00
2022-09-06T12:09:39.503Z,23.00
2022-09-06T12:12:06.638Z,23.00
2022-09-06T12:14:43.474Z,23.10
2022-09-06T12:17:11.586Z,23.30
2022-09-06T12:19:48.637Z,23.40
2022-09-06T12:22:33.525Z,23.60
2022-09-06T12:25:05.276Z,23.70
2022-09-06T12:27:37.766Z,23.80
2022-09-06T12:30:09.802Z,24.00
2022-09-06T12:32:37.868Z,23.90
2022-09-06T12:37:58.443Z,23.70
2022-09-06T12:40:27.126Z,23.70
2022-09-06T12:42:54.069Z,23.80
2022-09-06T12:45:26.555Z,23.90
2022-09-06T12:48:16.214Z,23.70
2022-09-06T12:50:43.229Z,23.70
2022-09-06T12:53:25.569Z,23.60
2022-09-06T12:56:14.604Z,23.50
2022-09-06T12:58:41.891Z,23.50
2022-09-06T13:01:23.892Z,23.70
2022-09-06T13:04:02.832Z,23.70
2022-09-06T13:06:30.470Z,23.80
2022-09-06T13:08:57.807Z,23.90
2022-09-06T13:11:27.682Z,23.90
2022-09-06T13:13:54.778Z,23.80
2022-09-06T13:16:26.801Z,23.80
2022-09-06T13:18:53.804Z,23.80
2022-09-06T13:21:32.995Z,23.80
2022-09-06T13:24:03.973Z,23.80
2022-09-06T13:26:40.442Z,23.80
2022-09-06T13:29:30.550Z,24.00
2022-09-06T13:31:58.707Z,24.10
2022-09-06T13:34:30.043Z,24.30
2022-09-06T13:37:15.235Z,24.30
2022-09-06T13:39:44.150Z,24.20
2022-09-06T13:42:23.805Z,24.30
2022-09-06T13:44:51.264Z,24.20
2022-09-06T13:47:18.206Z,24.00
2022-09-06T13:49:45.154Z,23.80
2022-09-06T13:52:12.069Z,23.80
2022-09-06T13:54:40.127Z,24.00
2022-09-06T13:57:07.064Z,24.00
2022-09-06T13:59:34.019Z,24.00
2022-09-06T14:02:12.196Z,24.00
2022-09-06T14:04:39.201Z,24.00
2022-09-06T14:07:06.177Z,24.00
2022-09-06T14:09:33.420Z,23.80
2022-09-06T14:12:00.823Z,23.80
2022-09-06T14:14:27.734Z,23.80
2022-09-06T14:16:54.691Z,23.50
2022-09-06T14:19:21.559Z,23.30
2022-09-06T14:21:48.491Z,23.30
2022-09-06T14:24:15.513Z,23.30
2022-09-06T14:26:42.451Z,23.40
2022-09-06T14:29:09.390Z,23.50
2022-09-06T14:31:37.028Z,23.50
2022-09-06T14:34:04.247Z,23.50
2022-09-06T14:36:31.823Z,23.60
2022-09-06T14:38:59.246Z,23.60
2022-09-06T14:41:26.350Z,23.50
2022-09-06T14:43:54.549Z,23.40
2022-09-06T14:46:22.351Z,23.50
2022-09-06T14:48:49.550Z,23.50
2022-09-06T14:51:24.115Z,23.60
2022-09-06T14:53:55.654Z,23.80
2022-09-06T14:56:23.123Z,23.70
2022-09-06T14:58:50.166Z,23.70
2022-09-06T15:01:19.530Z,23.60
2022-09-06T15:03:51.913Z,23.50
2022-09-06T15:06:22.514Z,23.50
2022-09-06T15:08:49.674Z,23.60
2022-09-06T15:11:29.831Z,23.80
2022-09-06T15:13:57.519Z,23.80
2022-09-06T15:16:24.488Z,23.90
2022-09-06T15:18:51.558Z,24.00
2022-09-06T15:21:18.543Z,24.00
2022-09-06T15:23:45.482Z,24.10
2022-09-06T15:26:13.697Z,24.20
2022-09-06T15:28:41.369Z,24.20
2022-09-06T15:31:08.551Z,24.10
2022-09-06T15:33:36.192Z,24.00
2022-09-06T15:36:06.439Z,23.80
2022-09-06T15:38:35.302Z,23.70
2022-09-06T15:41:10.182Z,23.50
2022-09-06T15:43:38.413Z,23.30
2022-09-06T15:46:05.540Z,23.20
2022-09-06T15:48:43.233Z,23.20
2022-09-06T15:51:10.678Z,23.30
2022-09-06T15:53:38.174Z,23.30
2022-09-06T15:56:06.046Z,23.10
2022-09-06T15:58:32.986Z,23.00
2022-09-06T16:01:03.800Z,22.90
2022-09-06T16:03:30.903Z,22.80
2022-09-06T16:08:58.535Z,22.50
2022-09-06T16:11:25.697Z,22.50
2022-09-06T16:13:53.130Z,22.40
2022-09-06T16:16:20.117Z,22.40
2022-09-06T16:18:47.407Z,22.30
2022-09-06T16:21:16.802Z,22.20
2022-09-06T16:23:44.009Z,22.20
2022-09-06T16:26:11.274Z,22.10
2022-09-06T16:28:38.206Z,22.00
2022-09-06T16:31:06.975Z,21.70
2022-09-06T16:33:35.424Z,21.50
2022-09-06T16:36:03.505Z,21.30
2022-09-06T16:38:31.927Z,21.30
2022-09-06T16:40:59.770Z,21.20
2022-09-06T16:43:27.282Z,21.20
2022-09-06T16:45:58.635Z,21.20
2022-09-06T16:48:26.574Z,21.20
2022-09-06T16:50:53.609Z,21.10
2022-09-06T16:53:22.214Z,21.00
2022-09-06T16:55:49.684Z,20.90
2022-09-06T16:58:16.934Z,20.80
2022-09-06T17:00:44.965Z,20.70
2022-09-06T17:03:15.028Z,20.70
2022-09-06T17:05:41.920Z,20.60
2022-09-06T17:08:09.971Z,20.60
2022-09-06T17:10:39.942Z,20.60
2022-09-06T17:13:07.146Z,20.50
2022-09-06T17:15:53.993Z,20.20
2022-09-06T17:18:22.333Z,20.20
2022-09-06T17:21:00.843Z,20.20
2022-09-06T17:23:27.990Z,20.20
2022-09-06T17:25:54.935Z,20.20
2022-09-06T17:28:22.046Z,20.20
2022-09-06T17:30:49.340Z,20.20
2022-09-06T17:33:17.783Z,20.30
2022-09-06T17:35:45.215Z,20.30
2022-09-06T17:38:12.626Z,20.20
2022-09-06T17:40:39.635Z,20.30
2022-09-06T17:43:06.732Z,20.20
2022-09-06T17:45:40.812Z,20.20
2022-09-06T17:48:08.798Z,20.20
2022-09-06T17:50:35.792Z,20.10
2022-09-06T17:53:02.986Z,20.10
2022-09-06T17:55:30.135Z,20.00
2022-09-06T17:57:57.124Z,19.90
2022-09-06T18:00:24.815Z,19.90
2022-09-06T18:02:51.926Z,19.90
2022-09-06T18:05:18.949Z,19.80
2022-09-06T18:07:46.028Z,19.80
2022-09-06T18:10:15.172Z,19.70
2022-09-06T18:12:42.554Z,19.70
2022-09-06T18:15:10.319Z,19.70
2022-09-06T18:17:37.169Z,19.70
2022-09-06T18:20:04.978Z,19.70
2022-09-06T18:22:32.643Z,19.80
2022-09-06T18:24:59.618Z,19.70
2022-09-06T18:27:26.545Z,19.70
2022-09-06T18:29:53.505Z,19.70
2022-09-06T18:32:20.447Z,19.70
2022-09-06T18:34:47.421Z,19.60
2022-09-06T18:37:14.715Z,19.50
2022-09-06T18:39:42.603Z,19.50
2022-09-06T18:42:11.389Z,19.50
2022-09-06T18:44:38.871Z,19.40
2022-09-06T18:47:07.160Z,19.40
2022-09-06T18:49:34.395Z,19.30
2022-09-06T18:52:02.691Z,19.30
2022-09-06T18:54:29.888Z,19.30
2022-09-06T18:56:56.881Z,19.30
2022-09-06T18:59:23.846Z,19.30
2022-09-06T19:01:50.860Z,19.30
2022-09-06T19:04:17.815Z,19.40
2022-09-06T19:06:45.060Z,19.30
2022-09-06T19:09:13.853Z,19.30
2022-09-06T19:11:45.601Z,19.30
2022-09-06T19:14:12.613Z,19.10
2022-09-06T19:16:39.626Z,19.10
2022-09-06T19:19:07.415Z,19.10
2022-09-06T19:21:39.197Z,19.10
2022-09-06T19:24:08.978Z,19.10
2022-09-06T19:26:38.018Z,19.10
2022-09-06T19:29:07.178Z,19.10
2022-09-06T19:31:36.721Z,19.10
2022-09-06T19:34:04.212Z,19.00
2022-09-06T19:36:31.974Z,19.00
2022-09-06T19:39:06.869Z,18.90
2022-09-06T19:41:36.386Z,18.90
2022-09-06T19:44:05.809Z,18.80
2022-09-06T19:46:33.022Z,18.80
2022-09-06T19:49:00.650Z,18.70
2022-09-06T19:51:27.632Z,18.60
2022-09-06T19:53:57.861Z,18.50
2022-09-06T19:56:33.731Z,18.40
2022-09-06T19:59:02.481Z,18.40
2022-09-06T20:01:31.272Z,18.30
2022-09-06T20:03:59.136Z,18.30
2022-09-06T20:06:26.902Z,18.20
2022-09-06T20:08:55.464Z,18.20
2022-09-06T20:11:23.662Z,18.10
2022-09-06T20:13:50.622Z,18.00
2022-09-06T20:16:20.448Z,18.00
2022-09-06T20:18:48.477Z,17.90
2022-09-06T20:21:17.765Z,17.90
2022-09-06T20:23:49.085Z,17.90
2022-09-06T20:26:16.044Z,17.80
2022-09-06T20:28:44.213Z,17.80
2022-09-06T20:31:14.227Z,17.70
2022-09-06T20:33:43.704Z,17.60
2022-09-06T20:36:12.906Z,17.60
2022-09-06T20:38:41.835Z,17.60
2022-09-06T20:41:09.793Z,17.50
2022-09-06T20:43:37.114Z,17.50
2022-09-06T20:46:14.812Z,17.40
2022-09-06T20:48:44.684Z,17.40
2022-09-06T20:51:23.347Z,17.30
2022-09-06T20:53:57.911Z,17.30
2022-09-06T20:56:26.538Z,17.30
2022-09-06T20:58:55.167Z,17.20
2022-09-06T21:01:23.836Z,17.20
2022-09-06T21:03:52.670Z,17.20
2022-09-06T21:06:20.490Z,17.20
2022-09-06T21:08:47.926Z,17.10
2022-09-06T21:11:14.835Z,17.00
2022-09-06T21:13:41.992Z,17.00
2022-09-06T21:16:09.061Z,16.90
2022-09-06T21:18:36.319Z,16.90
2022-09-06T21:21:05.277Z,16.90
2022-09-06T21:23:34.239Z,16.90
2022-09-06T21:26:02.599Z,16.90
2022-09-06T21:28:31.258Z,16.80
2022-09-06T21:31:04.265Z,16.80
2022-09-06T21:33:31.828Z,16.80
2022-09-06T21:36:03.864Z,16.70
2022-09-06T21:38:31.448Z,16.70
2022-09-06T21:40:58.654Z,16.70
2022-09-06T21:43:25.807Z,16.70
2022-09-06T21:45:52.807Z,16.60
2022-09-06T21:48:19.780Z,16.70
2022-09-06T21:50:50.180Z,16.60
2022-09-06T21:53:17.422Z,16.60
2022-09-06T21:55:44.678Z,16.60
2022-09-06T21:58:12.230Z,16.60
2022-09-06T22:00:39.543Z,16.50
2022-09-06T22:03:07.279Z,16.50
2022-09-06T22:05:34.298Z,16.50
2022-09-06T22:08:01.464Z,16.50
2022-09-06T22:10:28.337Z,16.50
2022-09-06T22:12:55.575Z,16.50
2022-09-06T22:15:23.744Z,16.40
2022-09-06T22:17:50.663Z,16.40
2022-09-06T22:20:17.651Z,16.40
2022-09-06T22:22:46.312Z,16.40
2022-09-06T22:25:13.852Z,16.40
2022-09-06T22:27:41.187Z,16.40
2022-09-06T22:30:08.529Z,16.40
2022-09-06T22:32:35.418Z,16.30
2022-09-06T22:35:03.763Z,16.30
2022-09-06T22:37:30.718Z,16.30
2022-09-06T22:39:57.623Z,16.20
2022-09-06T22:42:24.675Z,16.20
2022-09-06T22:44:51.772Z,16.20
2022-09-06T22:47:18.690Z,16.20
2022-09-06T22:49:45.577Z,16.20
2022-09-06T22:52:12.874Z,16.20
2022-09-06T22:54:40.111Z,16.20
2022-09-06T22:57:07.115Z,16.10
2022-09-06T22:59:37.272Z,16.10
2022-09-06T23:02:04.447Z,16.10
2022-09-06T23:04:32.108Z,16.10
2022-09-06T23:06:59.704Z,16.10
2022-09-06T23:09:26.655Z,16.00
2022-09-06T23:11:53.561Z,16.00
2022-09-06T23:14:20.460Z,16.00
2022-09-06T23:16:47.325Z,15.90
2022-09-06T23:19:14.374Z,15.90
2022-09-06T23:21:41.240Z,15.90
2022-09-06T23:24:08.132Z,15.90
2022-09-06T23:26:35.055Z,15.90
2022-09-06T23:29:02.016Z,15.80
2022-09-06T23:31:31.507Z,15.90
2022-09-06T23:33:59.756Z,15.80
2022-09-06T23:36:26.881Z,15.80
2022-09-06T23:38:53.802Z,15.70
2022-09-06T23:41:20.764Z,15.70
2022-09-06T23:43:47.662Z,15.70
2022-09-06T23:46:17.718Z,15.60
2022-09-06T23:48:44.662Z,15.60
2022-09-06T23:51:12.114Z,15.60
2022-09-06T23:53:39.367Z,15.60
2022-09-06T23:56:07.121Z,15.60
2022-09-06T23:58:34.320Z,15.60
